sensor_id;sensor_type;location;lat;lon;timestamp;pressure;altitude;pressure_sealevel;temperature;humidity
54666;BME280;40566;50.006;36.180;2022-11-20T00:04:02;100169.78;;;1.04;77.17
54666;BME280;40566;50.006;36.180;2022-11-20T00:09:03;100175.81;;;1.09;77.14
54666;BME280;40566;50.006;36.180;2022-11-20T00:14:05;100171.59;;;1.10;77.02
54666;BME280;40566;50.006;36.180;2022-11-20T00:19:06;100174.25;;;1.17;77.00
54666;BME280;40566;50.006;36.180;2022-11-20T00:24:08;100173.38;;;1.15;76.99
54666;BME280;40566;50.006;36.180;2022-11-20T00:29:09;100178.31;;;1.06;76.95
54666;BME280;40566;50.006;36.180;2022-11-20T00:34:10;100194.16;;;0.90;77.00
54666;BME280;40566;50.006;36.180;2022-11-20T00:39:11;100182.22;;;0.89;77.06
54666;BME280;40566;50.006;36.180;2022-11-20T00:44:11;100189.13;;;0.93;77.11
54666;BME280;40566;50.006;36.180;2022-11-20T00:49:12;100182.38;;;0.95;76.79
54666;BME280;40566;50.006;36.180;2022-11-20T00:54:12;100192.41;;;0.89;76.78
54666;BME280;40566;50.006;36.180;2022-11-20T00:59:13;100201.44;;;0.71;77.11
54666;BME280;40566;50.006;36.180;2022-11-20T01:04:13;100204.00;;;0.71;77.27
54666;BME280;40566;50.006;36.180;2022-11-20T01:09:14;100210.13;;;0.83;76.87
54666;BME280;40566;50.006;36.180;2022-11-20T01:14:18;100220.44;;;0.87;76.67
54666;BME280;40566;50.006;36.180;2022-11-20T01:19:22;100216.19;;;0.88;76.42
54666;BME280;40566;50.006;36.180;2022-11-20T01:24:23;100219.50;;;0.84;76.44
54666;BME280;40566;50.006;36.180;2022-11-20T01:29:24;100220.97;;;0.72;76.48
54666;BME280;40566;50.006;36.180;2022-11-20T01:34:25;100240.41;;;0.69;76.55
54666;BME280;40566;50.006;36.180;2022-11-20T01:39:26;100250.56;;;0.66;76.39
54666;BME280;40566;50.006;36.180;2022-11-20T01:49:54;100241.41;;;0.77;76.48
54666;BME280;40566;50.006;36.180;2022-11-20T01:55:02;100243.22;;;0.81;76.46
54666;BME280;40566;50.006;36.180;2022-11-20T02:00:10;100238.25;;;0.89;76.10
54666;BME280;40566;50.006;36.180;2022-11-20T02:05:27;100253.03;;;1.05;75.53
54666;BME280;40566;50.006;36.180;2022-11-20T02:10:29;100227.53;;;1.04;75.50
54666;BME280;40566;50.006;36.180;2022-11-20T02:15:30;100232.56;;;1.02;75.82
54666;BME280;40566;50.006;36.180;2022-11-20T02:20:32;100243.50;;;0.95;75.66
54666;BME280;40566;50.006;36.180;2022-11-20T02:25:33;100265.53;;;0.93;75.79
54666;BME280;40566;50.006;36.180;2022-11-20T02:30:35;100275.41;;;0.77;75.73
54666;BME280;40566;50.006;36.180;2022-11-20T02:35:40;100272.00;;;0.78;75.80
54666;BME280;40566;50.006;36.180;2022-11-20T02:40:41;100279.00;;;0.89;75.63
54666;BME280;40566;50.006;36.180;2022-11-20T02:45:42;100283.19;;;0.85;75.69
54666;BME280;40566;50.006;36.180;2022-11-20T02:50:42;100304.47;;;0.89;75.59
54666;BME280;40566;50.006;36.180;2022-11-20T02:55:43;100286.84;;;0.98;75.43
54666;BME280;40566;50.006;36.180;2022-11-20T03:00:43;100295.44;;;1.03;75.12
54666;BME280;40566;50.006;36.180;2022-11-20T03:05:44;100292.78;;;0.97;75.46
54666;BME280;40566;50.006;36.180;2022-11-20T03:10:44;100291.13;;;0.99;75.39
54666;BME280;40566;50.006;36.180;2022-11-20T03:15:45;100300.56;;;1.06;75.13
54666;BME280;40566;50.006;36.180;2022-11-20T03:20:45;100311.63;;;1.05;75.11
54666;BME280;40566;50.006;36.180;2022-11-20T03:25:46;100320.03;;;1.01;75.01
54666;BME280;40566;50.006;36.180;2022-11-20T03:30:46;100325.16;;;1.04;74.92
54666;BME280;40566;50.006;36.180;2022-11-20T03:35:47;100341.34;;;1.06;74.73
54666;BME280;40566;50.006;36.180;2022-11-20T03:40:48;100334.59;;;1.08;74.69
54666;BME280;40566;50.006;36.180;2022-11-20T03:45:49;100337.09;;;1.05;74.79
54666;BME280;40566;50.006;36.180;2022-11-20T03:50:49;100335.44;;;1.07;74.85
54666;BME280;40566;50.006;36.180;2022-11-20T03:55:51;100351.47;;;1.03;75.08
54666;BME280;40566;50.006;36.180;2022-11-20T04:00:51;100344.81;;;1.10;74.81
54666;BME280;40566;50.006;36.180;2022-11-20T04:05:52;100337.28;;;1.16;74.52
54666;BME280;40566;50.006;36.180;2022-11-20T04:10:52;100332.31;;;1.21;74.46
54666;BME280;40566;50.006;36.180;2022-11-20T04:15:57;100315.22;;;1.16;74.57
54666;BME280;40566;50.006;36.180;2022-11-20T04:20:58;100317.75;;;1.15;74.59
54666;BME280;40566;50.006;36.180;2022-11-20T04:26:08;100333.03;;;1.15;74.43
54666;BME280;40566;50.006;36.180;2022-11-20T04:31:15;100327.09;;;1.16;74.30
54666;BME280;40566;50.006;36.180;2022-11-20T04:36:21;100327.78;;;1.07;74.47
54666;BME280;40566;50.006;36.180;2022-11-20T04:41:27;100319.84;;;0.92;74.82
54666;BME280;40566;50.006;36.180;2022-11-20T04:46:29;100336.69;;;0.87;74.95
54666;BME280;40566;50.006;36.180;2022-11-20T04:51:31;100342.63;;;0.86;75.03
54666;BME280;40566;50.006;36.180;2022-11-20T04:56:32;100342.66;;;0.89;74.89
54666;BME280;40566;50.006;36.180;2022-11-20T05:01:32;100353.03;;;0.96;74.66
54666;BME280;40566;50.006;36.180;2022-11-20T05:06:33;100359.84;;;0.97;74.75
54666;BME280;40566;50.006;36.180;2022-11-20T05:11:33;100372.63;;;0.99;74.59
54666;BME280;40566;50.006;36.180;2022-11-20T05:16:34;100395.59;;;1.02;74.41
54666;BME280;40566;50.006;36.180;2022-11-20T05:21:36;100405.91;;;1.08;73.93
54666;BME280;40566;50.006;36.180;2022-11-20T05:26:36;100422.13;;;1.12;73.98
54666;BME280;40566;50.006;36.180;2022-11-20T05:31:39;100416.22;;;1.13;73.81
54666;BME280;40566;50.006;36.180;2022-11-20T05:36:40;100415.41;;;1.15;73.75
54666;BME280;40566;50.006;36.180;2022-11-20T05:41:41;100426.41;;;1.13;73.68
54666;BME280;40566;50.006;36.180;2022-11-20T05:46:41;100428.06;;;1.11;73.95
54666;BME280;40566;50.006;36.180;2022-11-20T05:51:42;100434.06;;;1.14;73.72
54666;BME280;40566;50.006;36.180;2022-11-20T05:56:42;100438.34;;;1.15;73.85
54666;BME280;40566;50.006;36.180;2022-11-20T06:01:43;100438.44;;;1.20;73.54
54666;BME280;40566;50.006;36.180;2022-11-20T06:06:43;100441.97;;;1.25;73.45
54666;BME280;40566;50.006;36.180;2022-11-20T06:11:44;100436.09;;;1.29;73.35
54666;BME280;40566;50.006;36.180;2022-11-20T06:16:44;100413.13;;;1.28;73.41
54666;BME280;40566;50.006;36.180;2022-11-20T06:21:47;100409.75;;;1.30;73.62
54666;BME280;40566;50.006;36.180;2022-11-20T06:26:48;100389.38;;;1.29;73.48
54666;BME280;40566;50.006;36.180;2022-11-20T06:31:48;100373.06;;;1.22;73.47
54666;BME280;40566;50.006;36.180;2022-11-20T06:36:49;100356.84;;;1.17;73.97
54666;BME280;40566;50.006;36.180;2022-11-20T06:41:50;100340.56;;;1.09;73.95
54666;BME280;40566;50.006;36.180;2022-11-20T06:46:50;100326.31;;;1.20;73.67
54666;BME280;40566;50.006;36.180;2022-11-20T06:51:51;100348.56;;;1.27;73.53
54666;BME280;40566;50.006;36.180;2022-11-20T06:56:51;100349.41;;;1.28;73.71
54666;BME280;40566;50.006;36.180;2022-11-20T07:01:52;100353.06;;;1.42;73.29
54666;BME280;40566;50.006;36.180;2022-11-20T07:06:52;100365.19;;;1.52;72.98
54666;BME280;40566;50.006;36.180;2022-11-20T07:11:53;100357.69;;;1.60;72.52
54666;BME280;40566;50.006;36.180;2022-11-20T07:16:53;100366.97;;;1.56;72.75
54666;BME280;40566;50.006;36.180;2022-11-20T07:21:54;100371.16;;;1.53;72.64
54666;BME280;40566;50.006;36.180;2022-11-20T07:26:54;100378.97;;;1.64;72.60
54666;BME280;40566;50.006;36.180;2022-11-20T07:31:55;100381.31;;;1.51;73.01
54666;BME280;40566;50.006;36.180;2022-11-20T07:36:56;100352.44;;;1.54;73.03
54666;BME280;40566;50.006;36.180;2022-11-20T07:41:57;100323.41;;;1.46;73.22
54666;BME280;40566;50.006;36.180;2022-11-20T07:46:57;100343.84;;;1.47;73.34
54666;BME280;40566;50.006;36.180;2022-11-20T07:51:58;100341.38;;;1.50;73.07
54666;BME280;40566;50.006;36.180;2022-11-20T07:56:59;100360.25;;;1.62;72.85
54666;BME280;40566;50.006;36.180;2022-11-20T08:01:59;100366.25;;;1.65;72.78
54666;BME280;40566;50.006;36.180;2022-11-20T08:07:00;100365.34;;;1.60;72.86
54666;BME280;40566;50.006;36.180;2022-11-20T08:12:00;100367.84;;;1.58;72.69
54666;BME280;40566;50.006;36.180;2022-11-20T08:17:19;100374.50;;;1.50;73.06
54666;BME280;40566;50.006;36.180;2022-11-20T08:22:20;100363.53;;;1.54;72.97
54666;BME280;40566;50.006;36.180;2022-11-20T08:27:21;100360.13;;;1.55;72.67
54666;BME280;40566;50.006;36.180;2022-11-20T08:32:21;100331.94;;;1.46;72.89
54666;BME280;40566;50.006;36.180;2022-11-20T08:37:22;100312.09;;;1.31;73.28
54666;BME280;40566;50.006;36.180;2022-11-20T08:42:23;100320.38;;;1.19;73.72
54666;BME280;40566;50.006;36.180;2022-11-20T08:47:23;100318.69;;;1.18;73.54
54666;BME280;40566;50.006;36.180;2022-11-20T08:52:24;100329.59;;;1.14;73.65
54666;BME280;40566;50.006;36.180;2022-11-20T08:57:24;100316.03;;;1.14;73.53
54666;BME280;40566;50.006;36.180;2022-11-20T09:02:25;100304.75;;;1.01;73.79
54666;BME280;40566;50.006;36.180;2022-11-20T09:07:26;100291.03;;;0.96;74.01
54666;BME280;40566;50.006;36.180;2022-11-20T09:12:26;100289.25;;;0.92;73.79
54666;BME280;40566;50.006;36.180;2022-11-20T09:17:27;100294.34;;;0.92;73.86
54666;BME280;40566;50.006;36.180;2022-11-20T09:22:27;100273.25;;;0.97;73.79
54666;BME280;40566;50.006;36.180;2022-11-20T09:27:28;100272.31;;;0.94;73.85
54666;BME280;40566;50.006;36.180;2022-11-20T09:32:28;100277.38;;;0.92;73.92
54666;BME280;40566;50.006;36.180;2022-11-20T09:37:29;100267.53;;;1.09;73.60
54666;BME280;40566;50.006;36.180;2022-11-20T09:42:49;100260.88;;;1.17;73.29
54666;BME280;40566;50.006;36.180;2022-11-20T09:48:01;100261.84;;;1.23;73.48
54666;BME280;40566;50.006;36.180;2022-11-20T09:58:43;100276.53;;;1.37;72.89
54666;BME280;40566;50.006;36.180;2022-11-20T10:09:01;100287.72;;;1.46;72.76
54666;BME280;40566;50.006;36.180;2022-11-20T10:30:29;100292.66;;;1.35;73.13
54666;BME280;40566;50.006;36.180;2022-11-20T10:41:02;100278.97;;;1.31;73.36
54666;BME280;40566;50.006;36.180;2022-11-20T10:46:22;100280.78;;;1.37;73.29
54666;BME280;40566;50.006;36.180;2022-11-20T10:56:53;100261.31;;;1.41;73.58
54666;BME280;40566;50.006;36.180;2022-11-20T11:01:56;100274.19;;;1.48;73.43
54666;BME280;40566;50.006;36.180;2022-11-20T11:07:08;100267.31;;;1.44;73.45
54666;BME280;40566;50.006;36.180;2022-11-20T11:12:11;100257.09;;;1.43;73.55
54666;BME280;40566;50.006;36.180;2022-11-20T11:17:22;100260.47;;;1.42;73.58
54666;BME280;40566;50.006;36.180;2022-11-20T11:22:23;100264.00;;;1.50;73.57
54666;BME280;40566;50.006;36.180;2022-11-20T11:27:24;100262.41;;;1.55;73.46
54666;BME280;40566;50.006;36.180;2022-11-20T11:32:25;100246.25;;;1.56;73.58
54666;BME280;40566;50.006;36.180;2022-11-20T11:37:34;100236.97;;;1.58;73.44
54666;BME280;40566;50.006;36.180;2022-11-20T11:42:42;100243.69;;;1.53;73.66
54666;BME280;40566;50.006;36.180;2022-11-20T11:53:10;100238.47;;;1.47;73.93
54666;BME280;40566;50.006;36.180;2022-11-20T12:03:36;100209.59;;;1.46;73.97
54666;BME280;40566;50.006;36.180;2022-11-20T12:08:45;100211.22;;;1.43;74.26
54666;BME280;40566;50.006;36.180;2022-11-20T12:13:54;100200.31;;;1.51;74.03
54666;BME280;40566;50.006;36.180;2022-11-20T12:18:56;100189.22;;;1.49;74.24
54666;BME280;40566;50.006;36.180;2022-11-20T12:39:41;100146.69;;;1.45;74.56
54666;BME280;40566;50.006;36.180;2022-11-20T12:45:13;100146.66;;;1.44;74.67
54666;BME280;40566;50.006;36.180;2022-11-20T13:06:17;100123.59;;;1.36;75.05
54666;BME280;40566;50.006;36.180;2022-11-20T13:21:38;100105.63;;;1.28;75.34
54666;BME280;40566;50.006;36.180;2022-11-20T13:26:39;100103.88;;;1.24;75.64
54666;BME280;40566;50.006;36.180;2022-11-20T13:31:44;100103.78;;;1.18;75.81
54666;BME280;40566;50.006;36.180;2022-11-20T13:36:53;100088.47;;;1.16;75.66
54666;BME280;40566;50.006;36.180;2022-11-20T13:47:24;100094.34;;;1.12;75.86
54666;BME280;40566;50.006;36.180;2022-11-20T14:08:13;100079.75;;;1.02;76.09
54666;BME280;40566;50.006;36.180;2022-11-20T14:13:22;100076.31;;;1.00;76.17
54666;BME280;40566;50.006;36.180;2022-11-20T14:18:25;100068.78;;;1.06;75.88
54666;BME280;40566;50.006;36.180;2022-11-20T14:23:28;100057.69;;;1.01;76.10
54666;BME280;40566;50.006;36.180;2022-11-20T14:28:30;100057.78;;;1.07;75.87
54666;BME280;40566;50.006;36.180;2022-11-20T14:33:32;100047.69;;;1.16;75.67
54666;BME280;40566;50.006;36.180;2022-11-20T14:38:34;100049.44;;;1.17;75.66
54666;BME280;40566;50.006;36.180;2022-11-20T14:43:36;100043.59;;;1.25;75.49
54666;BME280;40566;50.006;36.180;2022-11-20T14:53:40;100053.78;;;1.25;75.36
54666;BME280;40566;50.006;36.180;2022-11-20T14:58:41;100046.97;;;1.24;75.62
54666;BME280;40566;50.006;36.180;2022-11-20T15:03:41;100032.56;;;1.26;75.72
54666;BME280;40566;50.006;36.180;2022-11-20T15:08:51;100018.13;;;1.25;75.60
54666;BME280;40566;50.006;36.180;2022-11-20T15:13:51;100020.63;;;1.23;75.50
54666;BME280;40566;50.006;36.180;2022-11-20T15:18:52;100023.19;;;1.23;75.77
54666;BME280;40566;50.006;36.180;2022-11-20T15:23:53;100006.16;;;1.22;75.78
54666;BME280;40566;50.006;36.180;2022-11-20T15:28:54;99993.38;;;1.17;75.89
54666;BME280;40566;50.006;36.180;2022-11-20T15:33:55;99990.84;;;1.19;76.14
54666;BME280;40566;50.006;36.180;2022-11-20T15:38:56;99993.41;;;1.19;75.84
54666;BME280;40566;50.006;36.180;2022-11-20T15:43:56;99993.41;;;1.19;75.76
54666;BME280;40566;50.006;36.180;2022-11-20T15:48:59;99989.09;;;1.16;76.04
54666;BME280;40566;50.006;36.180;2022-11-20T15:54:01;99981.44;;;1.13;76.11
54666;BME280;40566;50.006;36.180;2022-11-20T15:59:02;99982.38;;;1.18;75.91
54666;BME280;40566;50.006;36.180;2022-11-20T16:04:05;99962.78;;;1.16;76.02
54666;BME280;40566;50.006;36.180;2022-11-20T16:09:08;99975.50;;;1.13;76.15
54666;BME280;40566;50.006;36.180;2022-11-20T16:14:10;99957.59;;;1.10;76.21
54666;BME280;40566;50.006;36.180;2022-11-20T16:19:29;99945.78;;;1.16;76.12
54666;BME280;40566;50.006;36.180;2022-11-20T16:24:30;99933.84;;;1.12;76.31
54666;BME280;40566;50.006;36.180;2022-11-20T16:29:31;99925.38;;;1.12;76.20
54666;BME280;40566;50.006;36.180;2022-11-20T16:34:31;99916.03;;;1.12;76.41
54666;BME280;40566;50.006;36.180;2022-11-20T16:39:32;99921.19;;;1.17;76.18
54666;BME280;40566;50.006;36.180;2022-11-20T16:44:32;99902.56;;;1.21;76.25
54666;BME280;40566;50.006;36.180;2022-11-20T16:49:34;99897.50;;;1.23;76.35
54666;BME280;40566;50.006;36.180;2022-11-20T16:54:34;99899.28;;;1.31;76.36
54666;BME280;40566;50.006;36.180;2022-11-20T16:59:35;99897.56;;;1.30;76.28
54666;BME280;40566;50.006;36.180;2022-11-20T17:04:36;99889.91;;;1.29;76.37
54666;BME280;40566;50.006;36.180;2022-11-20T17:09:37;99879.72;;;1.27;76.52
54666;BME280;40566;50.006;36.180;2022-11-20T17:14:38;99872.03;;;1.26;76.59
54666;BME280;40566;50.006;36.180;2022-11-20T17:19:38;99861.91;;;1.29;76.49
54666;BME280;40566;50.006;36.180;2022-11-20T17:24:39;99856.78;;;1.27;76.57
54666;BME280;40566;50.006;36.180;2022-11-20T17:29:39;99841.44;;;1.24;76.86
54666;BME280;40566;50.006;36.180;2022-11-20T17:34:40;99837.31;;;1.32;76.70
54666;BME280;40566;50.006;36.180;2022-11-20T17:39:41;99822.78;;;1.28;76.91
54666;BME280;40566;50.006;36.180;2022-11-20T17:44:44;99844.94;;;1.34;76.97
54666;BME280;40566;50.006;36.180;2022-11-20T17:49:45;99831.41;;;1.38;76.76
54666;BME280;40566;50.006;36.180;2022-11-20T17:54:46;99832.28;;;1.42;76.68
54666;BME280;40566;50.006;36.180;2022-11-20T17:59:47;99822.94;;;1.39;76.84
54666;BME280;40566;50.006;36.180;2022-11-20T18:04:48;99794.03;;;1.40;77.11
54666;BME280;40566;50.006;36.180;2022-11-20T18:09:49;99780.50;;;1.43;76.92
54666;BME280;40566;50.006;36.180;2022-11-20T18:14:50;99762.63;;;1.41;76.84
54666;BME280;40566;50.006;36.180;2022-11-20T18:19:50;99802.56;;;1.42;77.15
54666;BME280;40566;50.006;36.180;2022-11-20T18:24:51;99810.25;;;1.45;76.98
54666;BME280;40566;50.006;36.180;2022-11-20T18:29:52;99811.88;;;1.40;77.22
54666;BME280;40566;50.006;36.180;2022-11-20T18:34:53;99812.75;;;1.42;77.27
54666;BME280;40566;50.006;36.180;2022-11-20T18:39:53;99808.59;;;1.50;77.11
54666;BME280;40566;50.006;36.180;2022-11-20T18:44:56;99790.75;;;1.50;77.24
54666;BME280;40566;50.006;36.180;2022-11-20T18:50:00;99787.38;;;1.51;77.27
54666;BME280;40566;50.006;36.180;2022-11-20T18:55:02;99772.97;;;1.55;77.37
54666;BME280;40566;50.006;36.180;2022-11-20T19:00:04;99774.69;;;1.59;77.22
54666;BME280;40566;50.006;36.180;2022-11-20T19:05:05;99761.94;;;1.57;77.36
54666;BME280;40566;50.006;36.180;2022-11-20T19:10:06;99750.91;;;1.60;77.33
54666;BME280;40566;50.006;36.180;2022-11-20T19:15:07;99744.97;;;1.63;77.36
54666;BME280;40566;50.006;36.180;2022-11-20T19:20:08;99728.78;;;1.57;77.37
54666;BME280;40566;50.006;36.180;2022-11-20T19:25:09;99727.06;;;1.55;77.37
54666;BME280;40566;50.006;36.180;2022-11-20T19:30:10;99714.34;;;1.56;77.53
54666;BME280;40566;50.006;36.180;2022-11-20T19:35:10;99704.16;;;1.59;77.48
54666;BME280;40566;50.006;36.180;2022-11-20T19:40:11;99704.19;;;1.66;77.43
54666;BME280;40566;50.006;36.180;2022-11-20T19:45:12;99695.66;;;1.59;77.62
54666;BME280;40566;50.006;36.180;2022-11-20T19:50:13;99677.84;;;1.64;77.59
54666;BME280;40566;50.006;36.180;2022-11-20T19:55:15;99678.72;;;1.64;77.66
54666;BME280;40566;50.006;36.180;2022-11-20T20:00:16;99694.00;;;1.63;77.86
54666;BME280;40566;50.006;36.180;2022-11-20T20:05:16;99683.84;;;1.69;77.71
54666;BME280;40566;50.006;36.180;2022-11-20T20:10:17;99689.75;;;1.65;77.97
54666;BME280;40566;50.006;36.180;2022-11-20T20:15:19;99689.75;;;1.63;78.07
54666;BME280;40566;50.006;36.180;2022-11-20T20:20:20;99666.81;;;1.68;78.13
54666;BME280;40566;50.006;36.180;2022-11-20T20:25:21;99628.63;;;1.71;77.94
54666;BME280;40566;50.006;36.180;2022-11-20T20:30:21;99630.31;;;1.73;77.72
54666;BME280;40566;50.006;36.180;2022-11-20T20:35:22;99617.59;;;1.72;77.87
54666;BME280;40566;50.006;36.180;2022-11-20T20:40:23;99624.34;;;1.70;78.15
54666;BME280;40566;50.006;36.180;2022-11-20T20:45:24;99636.25;;;1.71;77.96
54666;BME280;40566;50.006;36.180;2022-11-20T20:50:24;99647.31;;;1.71;78.21
54666;BME280;40566;50.006;36.180;2022-11-20T20:55:25;99622.66;;;1.69;78.08
54666;BME280;40566;50.006;36.180;2022-11-20T21:00:25;99594.59;;;1.64;78.17
54666;BME280;40566;50.006;36.180;2022-11-20T21:05:26;99602.25;;;1.64;78.21
54666;BME280;40566;50.006;36.180;2022-11-20T21:10:27;99617.53;;;1.66;78.37
54666;BME280;40566;50.006;36.180;2022-11-20T21:15:29;99600.56;;;1.69;78.16
54666;BME280;40566;50.006;36.180;2022-11-20T21:20:30;99569.94;;;1.68;78.14
54666;BME280;40566;50.006;36.180;2022-11-20T21:25:49;99541.03;;;1.66;78.50
54666;BME280;40566;50.006;36.180;2022-11-20T21:30:51;99536.78;;;1.68;78.27
54666;BME280;40566;50.006;36.180;2022-11-20T21:35:52;99526.63;;;1.72;78.46
54666;BME280;40566;50.006;36.180;2022-11-20T21:40:52;99541.09;;;1.72;78.55
54666;BME280;40566;50.006;36.180;2022-11-20T21:46:08;99541.09;;;1.75;78.55
54666;BME280;40566;50.006;36.180;2022-11-20T21:51:11;99541.09;;;1.75;78.43
54666;BME280;40566;50.006;36.180;2022-11-20T21:56:13;99554.69;;;1.77;78.83
54666;BME280;40566;50.006;36.180;2022-11-20T22:01:23;99569.16;;;1.78;78.66
54666;BME280;40566;50.006;36.180;2022-11-20T22:06:26;99555.56;;;1.84;78.70
54666;BME280;40566;50.006;36.180;2022-11-20T22:11:29;99581.94;;;1.84;78.68
54666;BME280;40566;50.006;36.180;2022-11-20T22:16:32;99569.22;;;1.90;78.73
54666;BME280;40566;50.006;36.180;2022-11-20T22:21:33;99547.97;;;1.94;78.61
54666;BME280;40566;50.006;36.180;2022-11-20T22:26:34;99540.34;;;1.96;78.56
54666;BME280;40566;50.006;36.180;2022-11-20T22:31:35;99532.69;;;1.96;78.70
54666;BME280;40566;50.006;36.180;2022-11-20T22:36:36;99504.63;;;1.99;78.69
54666;BME280;40566;50.006;36.180;2022-11-20T22:41:37;99470.63;;;2.00;78.53
54666;BME280;40566;50.006;36.180;2022-11-20T22:46:38;99449.38;;;1.98;78.36
54666;BME280;40566;50.006;36.180;2022-11-20T22:51:40;99464.66;;;1.93;78.53
54666;BME280;40566;50.006;36.180;2022-11-20T22:56:40;99472.31;;;1.90;78.74
54666;BME280;40566;50.006;36.180;2022-11-20T23:01:41;99468.91;;;1.93;78.97
54666;BME280;40566;50.006;36.180;2022-11-20T23:06:41;99460.44;;;2.00;78.88
54666;BME280;40566;50.006;36.180;2022-11-20T23:11:42;99461.28;;;1.97;78.66
54666;BME280;40566;50.006;36.180;2022-11-20T23:16:43;99466.38;;;1.96;78.85
54666;BME280;40566;50.006;36.180;2022-11-20T23:21:44;99460.41;;;2.03;78.92
54666;BME280;40566;50.006;36.180;2022-11-20T23:26:44;99456.19;;;2.04;78.66
54666;BME280;40566;50.006;36.180;2022-11-20T23:31:47;99447.66;;;2.03;78.85
54666;BME280;40566;50.006;36.180;2022-11-20T23:36:47;99431.53;;;2.00;78.87
54666;BME280;40566;50.006;36.180;2022-11-20T23:41:48;99437.47;;;2.02;78.92
54666;BME280;40566;50.006;36.180;2022-11-20T23:46:48;99427.25;;;1.98;78.78
54666;BME280;40566;50.006;36.180;2022-11-20T23:51:49;99413.66;;;1.96;78.76
54666;BME280;40566;50.006;36.180;2022-11-20T23:56:50;99401.75;;;1.98;78.90
